Time;durP1;ratioP1;P1;durP2;ratioP2;P2;SDS_P1;SDS_P2;PMS_P1;PMS_P2;Temp;Humidity;BMP_temperature;BMP_pressure;BME280_temperature;BME280_humidity;BME280_pressure;Samples;Min_cycle;Max_cycle;Signal;HPM_P1;HPM_P2
2023/04/28 00:00:56;;;;;;;6.72;4.28;;;10.60;52.00;;;;;;5051449;28;20032;-69
2023/04/28 00:03:22;;;;;;;7.85;4.80;;;10.60;52.10;;;;;;5051612;28;20025;-69
2023/04/28 00:05:48;;;;;;;6.63;4.50;;;10.60;52.20;;;;;;5051429;28;20104;-69
2023/04/28 00:08:14;;;;;;;6.57;4.55;;;10.60;52.40;;;;;;5051185;28;20507;-68
2023/04/28 00:10:39;;;;;;;5.80;4.13;;;10.60;52.30;;;;;;5051769;28;20032;-67
2023/04/28 00:13:05;;;;;;;6.35;4.00;;;10.60;52.30;;;;;;5051487;28;20017;-68
2023/04/28 00:15:30;;;;;;;6.55;4.53;;;10.60;52.30;;;;;;5051307;28;20052;-68
2023/04/28 00:17:56;;;;;;;7.95;4.40;;;10.50;52.30;;;;;;5051054;28;20096;-67
2023/04/28 00:20:21;;;;;;;5.97;4.50;;;10.50;52.40;;;;;;5051003;28;20024;-68
2023/04/28 00:22:48;;;;;;;6.47;4.47;;;10.50;52.50;;;;;;5051097;28;20033;-69
2023/04/28 00:25:14;;;;;;;6.28;4.32;;;10.50;52.40;;;;;;5051202;28;20127;-69
2023/04/28 00:27:39;;;;;;;7.38;4.25;;;10.50;52.40;;;;;;5051302;28;20115;-68
2023/04/28 00:30:05;;;;;;;6.35;4.55;;;10.50;52.40;;;;;;5050241;28;20041;-68
2023/04/28 00:32:31;;;;;;;7.00;4.03;;;10.50;52.40;;;;;;5050633;28;20033;-69
2023/04/28 00:34:57;;;;;;;6.22;4.20;;;10.40;52.50;;;;;;5049458;28;20071;-68
2023/04/28 00:37:22;;;;;;;5.57;3.60;;;10.50;52.40;;;;;;5051063;28;20021;-68
2023/04/28 00:39:48;;;;;;;6.45;4.18;;;10.50;52.50;;;;;;5049698;28;20025;-69
2023/04/28 00:42:14;;;;;;;7.47;4.53;;;10.40;52.50;;;;;;5051192;28;20116;-68
2023/04/28 00:44:40;;;;;;;5.57;4.10;;;10.40;52.60;;;;;;5050836;28;20438;-69
2023/04/28 00:47:08;;;;;;;5.30;3.95;;;10.40;52.70;;;;;;5050669;28;20092;-68
2023/04/28 00:49:35;;;;;;;5.90;4.22;;;10.40;52.80;;;;;;5050823;28;20056;-68
2023/04/28 00:52:04;;;;;;;7.10;4.38;;;10.30;52.90;;;;;;5050769;28;20017;-69
2023/04/28 00:54:31;;;;;;;10.10;5.18;;;10.30;53.10;;;;;;5050661;28;20496;-69
2023/04/28 00:56:56;;;;;;;13.35;8.05;;;10.30;53.10;;;;;;5050412;28;20107;-68
2023/04/28 00:59:22;;;;;;;8.80;5.05;;;10.30;53.20;;;;;;5050512;28;20518;-68
2023/04/28 01:01:49;;;;;;;7.43;4.00;;;10.20;53.20;;;;;;5050113;28;20112;-67
2023/04/28 01:04:19;;;;;;;5.82;4.30;;;10.20;53.30;;;;;;5050366;28;20529;-67
2023/04/28 01:06:46;;;;;;;7.05;4.18;;;10.20;53.40;;;;;;5048816;28;20040;-69
2023/04/28 01:09:11;;;;;;;5.18;4.00;;;10.20;53.40;;;;;;5050432;28;20036;-68
2023/04/28 01:11:37;;;;;;;6.28;4.45;;;10.20;53.40;;;;;;5050240;28;20126;-68
2023/04/28 01:14:02;;;;;;;7.03;4.50;;;10.20;53.60;;;;;;5050348;28;20021;-67
2023/04/28 01:16:28;;;;;;;5.57;3.67;;;10.20;53.80;;;;;;5049954;28;20029;-68
2023/04/28 01:18:54;;;;;;;5.43;3.63;;;10.20;53.90;;;;;;5048876;28;20032;-67
2023/04/28 01:21:33;;;;;;;8.75;3.95;;;10.20;54.20;;;;;;5050086;28;20727;-68
2023/04/28 01:23:59;;;;;;;7.85;4.15;;;10.10;54.70;;;;;;5050326;28;20021;-68
2023/04/28 01:26:25;;;;;;;5.75;3.75;;;10.10;55.10;;;;;;5050076;28;20091;-68
2023/04/28 01:28:51;;;;;;;7.70;4.30;;;10.10;55.40;;;;;;5050085;28;20507;-67
2023/04/28 01:31:16;;;;;;;5.10;4.28;;;10.10;56.10;;;;;;5050014;28;20029;-68
2023/04/28 01:33:42;;;;;;;5.55;3.83;;;10.00;56.80;;;;;;5049920;28;20044;-68
2023/04/28 01:36:08;;;;;;;5.50;3.80;;;9.90;56.80;;;;;;5050128;28;20030;-68
2023/04/28 01:38:33;;;;;;;5.55;3.88;;;9.90;57.00;;;;;;5049877;28;20036;-66
2023/04/28 01:40:59;;;;;;;7.53;4.25;;;9.90;57.40;;;;;;5052798;28;20112;-67
2023/04/28 01:43:25;;;;;;;7.82;4.15;;;9.90;57.90;;;;;;5054024;28;20723;-67
2023/04/28 01:45:50;;;;;;;7.10;4.30;;;9.80;58.20;;;;;;5053855;28;20021;-69
2023/04/28 01:48:16;;;;;;;6.10;4.15;;;9.80;58.30;;;;;;5052600;28;20021;-68
2023/04/28 01:50:42;;;;;;;5.18;4.18;;;9.70;58.50;;;;;;5052446;28;20529;-66
2023/04/28 01:53:07;;;;;;;5.82;4.22;;;9.70;58.60;;;;;;5053697;28;20387;-69
2023/04/28 01:55:33;;;;;;;6.75;4.10;;;9.70;58.90;;;;;;5054123;28;20029;-67
2023/04/28 01:57:58;;;;;;;6.45;4.22;;;9.70;59.00;;;;;;5053864;28;20025;-67
2023/04/28 02:00:24;;;;;;;4.88;4.00;;;9.70;59.10;;;;;;5053439;28;20171;-66
2023/04/28 02:02:50;;;;;;;5.43;3.92;;;9.70;59.20;;;;;;5053714;28;20040;-68
2023/04/28 02:05:15;;;;;;;8.15;4.55;;;9.60;59.20;;;;;;5053647;28;20028;-67
2023/04/28 02:07:41;;;;;;;6.88;4.40;;;9.60;59.40;;;;;;5053541;28;20025;-68
2023/04/28 02:10:08;;;;;;;7.47;4.35;;;9.60;59.40;;;;;;5053503;28;20025;-68
2023/04/28 02:12:33;;;;;;;4.32;3.55;;;9.60;59.50;;;;;;5053517;28;20654;-68
2023/04/28 02:14:59;;;;;;;7.32;4.30;;;9.60;59.50;;;;;;5053134;28;20104;-67
2023/04/28 02:17:25;;;;;;;5.32;3.88;;;9.60;59.60;;;;;;5053423;28;20043;-68
2023/04/28 02:19:57;;;;;;;6.95;4.40;;;9.60;59.60;;;;;;5053294;28;20503;-67
2023/04/28 02:22:23;;;;;;;8.48;4.53;;;9.60;59.50;;;;;;5053339;28;20499;-68
2023/04/28 02:24:50;;;;;;;7.90;4.75;;;9.60;59.60;;;;;;5053111;28;20017;-68
2023/04/28 02:27:15;;;;;;;6.35;3.90;;;9.50;59.60;;;;;;5053600;28;20467;-66
2023/04/28 02:29:41;;;;;;;6.13;4.05;;;9.50;59.60;;;;;;5052959;28;20116;-68
2023/04/28 02:32:06;;;;;;;6.00;4.20;;;9.60;59.50;;;;;;5052273;28;20029;-66
2023/04/28 02:34:32;;;;;;;5.30;3.60;;;9.60;59.70;;;;;;5052640;28;20021;-67
2023/04/28 02:36:58;;;;;;;6.40;4.63;;;9.50;59.50;;;;;;5052941;28;20028;-66
2023/04/28 02:39:25;;;;;;;6.30;4.28;;;9.60;59.70;;;;;;5053182;28;20503;-68
2023/04/28 02:41:51;;;;;;;6.68;4.10;;;9.50;59.60;;;;;;5052718;28;20021;-68
2023/04/28 02:44:17;;;;;;;6.07;4.35;;;9.60;59.60;;;;;;5052971;28;20025;-68
2023/04/28 02:46:43;;;;;;;8.00;4.07;;;9.60;59.50;;;;;;5052788;28;20028;-67
2023/04/28 02:49:08;;;;;;;6.95;4.40;;;9.50;59.70;;;;;;5053275;28;20028;-67
2023/04/28 02:51:34;;;;;;;5.82;4.40;;;9.50;59.70;;;;;;5052492;28;20128;-68
2023/04/28 02:54:00;;;;;;;7.40;4.32;;;9.50;59.60;;;;;;5052985;28;20031;-68
2023/04/28 02:56:25;;;;;;;6.47;4.75;;;9.50;59.70;;;;;;5052611;28;20025;-68
2023/04/28 02:58:51;;;;;;;5.93;4.30;;;9.50;59.80;;;;;;5052611;28;20434;-67
2023/04/28 03:01:17;;;;;;;6.25;4.30;;;9.50;59.70;;;;;;5052538;28;20124;-67
2023/04/28 03:03:42;;;;;;;6.30;4.38;;;9.50;59.80;;;;;;5052775;28;20017;-69
2023/04/28 03:06:08;;;;;;;6.25;4.40;;;9.50;59.70;;;;;;5052915;28;20025;-68
2023/04/28 03:08:33;;;;;;;7.15;4.50;;;9.50;59.90;;;;;;5052472;28;20028;-67
2023/04/28 03:10:59;;;;;;;6.10;4.00;;;9.40;59.90;;;;;;5052827;28;20521;-68
2023/04/28 03:13:25;;;;;;;6.70;4.88;;;9.50;59.90;;;;;;5052837;28;20029;-69
2023/04/28 03:15:51;;;;;;;6.53;4.15;;;9.50;59.90;;;;;;5051577;28;20021;-68
2023/04/28 03:18:17;;;;;;;6.32;4.20;;;9.50;59.90;;;;;;5052326;28;20029;-68
2023/04/28 03:20:43;;;;;;;7.47;4.20;;;9.50;59.90;;;;;;5052720;28;20021;-68
2023/04/28 03:23:08;;;;;;;6.28;4.18;;;9.50;59.90;;;;;;5051418;28;20067;-68
2023/04/28 03:25:34;;;;;;;6.05;4.20;;;9.50;60.00;;;;;;5052271;28;20086;-68
2023/04/28 03:28:00;;;;;;;6.43;4.43;;;9.50;60.00;;;;;;5051937;28;20044;-67
2023/04/28 03:30:26;;;;;;;7.28;4.35;;;9.50;60.10;;;;;;5052196;28;20053;-68
2023/04/28 03:32:52;;;;;;;6.65;4.43;;;9.40;60.30;;;;;;5050741;28;20021;-69
2023/04/28 03:35:17;;;;;;;6.65;4.80;;;9.50;60.40;;;;;;5052214;28;20028;-69
2023/04/28 03:37:43;;;;;;;9.25;4.85;;;9.50;60.40;;;;;;5050672;28;20020;-68
2023/04/28 03:40:09;;;;;;;6.47;4.47;;;9.40;60.40;;;;;;5051853;28;20033;-67
2023/04/28 03:42:35;;;;;;;5.78;4.15;;;9.50;60.40;;;;;;5051793;28;20041;-67
2023/04/28 03:45:00;;;;;;;6.97;4.53;;;9.50;60.40;;;;;;5051739;28;20021;-68
2023/04/28 03:47:26;;;;;;;5.68;4.45;;;9.60;60.50;;;;;;5051835;28;20021;-68
2023/04/28 03:49:51;;;;;;;5.85;4.53;;;9.60;60.60;;;;;;5051744;28;20533;-67
2023/04/28 03:52:17;;;;;;;7.45;5.00;;;9.50;60.60;;;;;;5052064;28;20021;-67
2023/04/28 03:54:42;;;;;;;7.50;4.70;;;9.60;60.70;;;;;;5051546;28;20530;-66
2023/04/28 03:57:08;;;;;;;7.63;5.30;;;9.60;60.90;;;;;;5051396;28;20027;-69
2023/04/28 03:59:34;;;;;;;6.82;5.13;;;9.60;61.10;;;;;;5051571;28;20082;-68
2023/04/28 04:01:59;;;;;;;6.53;4.20;;;9.60;61.10;;;;;;5051585;28;20391;-69
2023/04/28 04:04:25;;;;;;;6.68;4.97;;;9.60;61.00;;;;;;5050711;28;20025;-67
2023/04/28 04:06:51;;;;;;;8.50;5.20;;;9.70;61.20;;;;;;5051516;28;20031;-68
2023/04/28 04:09:17;;;;;;;7.20;5.15;;;9.60;61.30;;;;;;5051398;28;20112;-68
2023/04/28 04:11:42;;;;;;;7.60;5.40;;;9.60;61.50;;;;;;5051228;28;20126;-68
2023/04/28 04:14:08;;;;;;;7.57;4.93;;;9.60;61.80;;;;;;5051198;28;20029;-65
2023/04/28 04:16:35;;;;;;;8.88;4.80;;;9.60;62.00;;;;;;5051036;28;20087;-66
2023/04/28 04:19:01;;;;;;;8.15;5.38;;;9.70;62.20;;;;;;5051143;28;20032;-66
2023/04/28 04:21:26;;;;;;;7.18;4.93;;;9.60;62.20;;;;;;5050958;28;20029;-65
2023/04/28 04:23:52;;;;;;;8.73;5.22;;;9.60;62.60;;;;;;5051140;28;20021;-67
2023/04/28 04:26:18;;;;;;;8.18;5.47;;;9.60;62.70;;;;;;5050662;28;20594;-66
2023/04/28 04:28:43;;;;;;;7.53;5.03;;;9.60;62.80;;;;;;5050958;28;20043;-66
2023/04/28 04:31:09;;;;;;;7.05;5.00;;;9.70;62.90;;;;;;5050877;28;20025;-66
2023/04/28 04:33:36;;;;;;;7.78;5.20;;;9.70;62.80;;;;;;5051064;28;20025;-66
2023/04/28 04:36:02;;;;;;;6.95;5.28;;;9.60;63.00;;;;;;5051182;28;20082;-67
2023/04/28 04:38:27;;;;;;;7.55;4.80;;;9.70;63.20;;;;;;5049493;28;20016;-67
2023/04/28 04:40:53;;;;;;;6.95;5.22;;;9.70;63.00;;;;;;5050575;28;20096;-67
2023/04/28 04:43:18;;;;;;;8.55;5.85;;;9.80;63.20;;;;;;5050597;28;20503;-68
2023/04/28 04:45:44;;;;;;;9.40;6.53;;;9.80;63.50;;;;;;5050857;28;20021;-66
2023/04/28 04:48:10;;;;;;;8.40;5.78;;;9.70;64.20;;;;;;5050438;28;20416;-66
2023/04/28 04:50:35;;;;;;;9.18;5.93;;;9.70;64.30;;;;;;5050646;28;20021;-66
2023/04/28 04:53:01;;;;;;;11.25;6.20;;;9.70;64.70;;;;;;5050977;28;20483;-67
2023/04/28 04:55:26;;;;;;;8.43;6.57;;;9.70;65.00;;;;;;5050384;28;20029;-67
2023/04/28 04:57:52;;;;;;;8.95;6.00;;;9.70;65.20;;;;;;5050310;28;20086;-67
2023/04/28 05:00:18;;;;;;;9.82;6.93;;;9.70;65.00;;;;;;5050522;28;20032;-67
2023/04/28 05:02:43;;;;;;;11.23;6.55;;;9.80;65.50;;;;;;5050350;28;20032;-68
2023/04/28 05:05:09;;;;;;;8.32;6.28;;;9.80;65.60;;;;;;5050423;28;20380;-66
2023/04/28 05:07:35;;;;;;;9.00;6.68;;;9.80;65.60;;;;;;5050236;28;20021;-65
2023/04/28 05:10:00;;;;;;;10.73;6.95;;;9.90;65.90;;;;;;5050089;28;20495;-66
2023/04/28 05:12:26;;;;;;;10.57;6.70;;;9.90;66.60;;;;;;5050441;28;20036;-68
2023/04/28 05:14:51;;;;;;;8.65;7.32;;;9.90;66.70;;;;;;5048617;28;20442;-67
2023/04/28 05:17:17;;;;;;;13.38;8.30;;;9.90;67.10;;;;;;5050256;28;20033;-66
2023/04/28 05:19:43;;;;;;;12.70;8.10;;;9.90;68.20;;;;;;5050151;28;20035;-66
2023/04/28 05:22:10;;;;;;;12.30;7.45;;;9.90;68.10;;;;;;5050130;28;20025;-65
2023/04/28 05:24:35;;;;;;;8.95;7.22;;;10.00;68.10;;;;;;5049752;28;20136;-67
2023/04/28 05:27:01;;;;;;;9.60;7.28;;;10.10;67.80;;;;;;5050181;28;20496;-67
2023/04/28 05:29:27;;;;;;;10.98;6.32;;;10.10;67.90;;;;;;5048617;28;20032;-66
2023/04/28 05:31:52;;;;;;;10.88;7.50;;;10.20;67.50;;;;;;5050222;28;20028;-67
2023/04/28 05:34:18;;;;;;;10.10;7.10;;;10.20;67.90;;;;;;5049957;28;20036;-66
2023/04/28 05:36:43;;;;;;;9.55;7.10;;;10.20;68.00;;;;;;5050136;28;20075;-66
2023/04/28 05:39:09;;;;;;;9.45;7.10;;;10.20;68.50;;;;;;5049923;28;20484;-67
2023/04/28 05:41:38;;;;;;;8.80;6.88;;;10.20;68.50;;;;;;5050177;28;20103;-68
2023/04/28 05:44:03;;;;;;;8.82;7.05;;;10.20;68.40;;;;;;5050314;28;20083;-66
2023/04/28 05:46:30;;;;;;;9.95;7.32;;;10.30;68.40;;;;;;5050220;28;20052;-67
2023/04/28 05:48:56;;;;;;;9.77;7.65;;;10.30;68.80;;;;;;5050212;28;20017;-67
2023/04/28 05:51:22;;;;;;;10.07;7.00;;;10.30;69.00;;;;;;5050516;28;20040;-67
2023/04/28 05:53:47;;;;;;;9.90;6.85;;;10.40;69.10;;;;;;5050242;28;20025;-66
2023/04/28 05:56:15;;;;;;;8.93;6.45;;;10.40;69.10;;;;;;5048707;28;20119;-66
2023/04/28 05:58:41;;;;;;;9.93;7.07;;;10.40;69.20;;;;;;5049916;28;20062;-66
2023/04/28 06:01:07;;;;;;;12.18;7.10;;;10.40;69.60;;;;;;5049730;28;20392;-66
2023/04/28 06:03:32;;;;;;;11.07;8.32;;;10.40;69.80;;;;;;5048980;28;20017;-69
2023/04/28 06:05:58;;;;;;;10.40;7.07;;;10.40;70.10;;;;;;5049845;28;20426;-68
2023/04/28 06:08:23;;;;;;;11.15;8.07;;;10.40;70.90;;;;;;5049669;28;20067;-67
2023/04/28 06:10:49;;;;;;;9.55;7.60;;;10.40;71.30;;;;;;5049646;28;20021;-67
2023/04/28 06:13:14;;;;;;;9.43;6.90;;;10.50;71.20;;;;;;5049822;28;20021;-68
2023/04/28 06:15:40;;;;;;;8.60;6.45;;;10.60;70.90;;;;;;5049969;28;20498;-68
2023/04/28 06:18:06;;;;;;;10.63;7.63;;;10.60;70.70;;;;;;5048299;28;20039;-68
2023/04/28 06:20:32;;;;;;;11.68;6.57;;;10.60;71.10;;;;;;5049695;28;20017;-65
2023/04/28 06:22:57;;;;;;;9.65;7.10;;;10.70;71.20;;;;;;5049298;28;20025;-65
2023/04/28 06:25:23;;;;;;;9.60;6.25;;;10.60;71.80;;;;;;5049563;28;20025;-67
2023/04/28 06:27:48;;;;;;;10.30;7.15;;;10.60;72.40;;;;;;5052180;28;20060;-67
2023/04/28 06:30:21;;;;;;;13.70;9.68;;;10.60;73.10;;;;;;5052311;28;20029;-67
2023/04/28 06:32:46;;;;;;;11.88;7.72;;;10.50;74.70;;;;;;5053109;28;20034;-67
2023/04/28 06:35:12;;;;;;;13.55;9.00;;;10.50;75.30;;;;;;5053539;28;20052;-66
2023/04/28 06:37:38;;;;;;;11.68;9.43;;;10.50;76.00;;;;;;5053022;28;20029;-66
2023/04/28 06:40:04;;;;;;;12.13;9.68;;;10.50;76.90;;;;;;5053392;28;20090;-66
2023/04/28 06:42:30;;;;;;;11.05;8.30;;;10.40;78.60;;;;;;5052977;28;20033;-66
2023/04/28 06:44:55;;;;;;;13.38;10.95;;;10.50;78.40;;;;;;5053067;28;20024;-66
2023/04/28 06:47:21;;;;;;;13.65;9.32;;;10.50;79.70;;;;;;5052655;28;20099;-66
2023/04/28 06:49:49;;;;;;;15.00;10.20;;;10.60;79.80;;;;;;5052763;28;20025;-65
2023/04/28 06:52:15;;;;;;;13.27;9.57;;;10.70;80.10;;;;;;5052797;28;20032;-66
2023/04/28 06:54:40;;;;;;;12.38;9.63;;;10.80;79.80;;;;;;5052839;28;20036;-66
2023/04/28 06:57:06;;;;;;;14.02;9.93;;;10.80;80.50;;;;;;5052723;28;20025;-67
2023/04/28 06:59:32;;;;;;;14.23;9.82;;;10.80;80.60;;;;;;5052625;28;20315;-67
2023/04/28 07:01:58;;;;;;;14.55;10.77;;;11.00;81.70;;;;;;5051371;28;20475;-68
2023/04/28 07:04:23;;;;;;;17.95;12.55;;;11.20;81.30;;;;;;5051219;28;20021;-67
2023/04/28 07:06:49;;;;;;;14.77;11.05;;;11.40;81.30;;;;;;5052524;28;20266;-67
2023/04/28 07:09:16;;;;;;;13.27;9.90;;;11.40;81.20;;;;;;5052308;28;20037;-68
2023/04/28 07:11:42;;;;;;;15.05;11.07;;;11.40;81.80;;;;;;5052994;28;20021;-68
2023/04/28 07:14:08;;;;;;;14.93;10.60;;;11.40;82.20;;;;;;5052380;28;20025;-67
2023/04/28 07:16:34;;;;;;;14.55;10.55;;;11.50;82.40;;;;;;5052297;28;20036;-68
2023/04/28 07:19:00;;;;;;;15.02;11.30;;;11.70;82.20;;;;;;5052210;28;20495;-67
2023/04/28 07:21:27;;;;;;;15.50;11.30;;;11.70;82.20;;;;;;5052161;28;20040;-65
2023/04/28 07:23:55;;;;;;;16.40;12.57;;;11.70;83.00;;;;;;5052349;28;20028;-66
2023/04/28 07:26:21;;;;;;;14.55;10.88;;;11.70;83.30;;;;;;5052131;28;20033;-67
2023/04/28 07:28:47;;;;;;;16.55;11.98;;;11.70;83.50;;;;;;5052644;28;20025;-66
2023/04/28 07:31:12;;;;;;;14.85;11.40;;;11.70;84.00;;;;;;5052510;28;20082;-67
2023/04/28 07:33:38;;;;;;;16.40;12.07;;;11.80;83.90;;;;;;5052370;28;20090;-68
2023/04/28 07:36:04;;;;;;;15.43;12.52;;;11.70;84.30;;;;;;5052029;28;20510;-67
2023/04/28 07:38:30;;;;;;;16.88;13.23;;;11.70;84.50;;;;;;5051975;28;20021;-67
2023/04/28 07:40:56;;;;;;;17.73;12.30;;;11.70;85.40;;;;;;5051896;28;20036;-66
2023/04/28 07:43:21;;;;;;;14.52;11.10;;;11.80;85.60;;;;;;5051796;28;20458;-66
2023/04/28 07:45:48;;;;;;;13.13;10.45;;;11.90;85.30;;;;;;5051714;28;20104;-67
2023/04/28 07:48:14;;;;;;;16.52;12.40;;;12.00;85.10;;;;;;5051635;28;20163;-67
2023/04/28 07:50:40;;;;;;;16.70;13.25;;;12.00;85.20;;;;;;5051418;28;20021;-68
2023/04/28 07:53:05;;;;;;;16.75;12.25;;;12.10;85.60;;;;;;5051659;28;20032;-66
2023/04/28 07:55:31;;;;;;;13.35;10.45;;;12.10;85.90;;;;;;5051736;28;20396;-67
2023/04/28 07:57:57;;;;;;;14.57;10.38;;;12.20;85.70;;;;;;5051334;28;20387;-66
2023/04/28 08:00:23;;;;;;;15.27;11.43;;;12.20;85.60;;;;;;5051526;28;20079;-66
2023/04/28 08:02:49;;;;;;;18.40;13.02;;;12.30;85.50;;;;;;5049823;28;20017;-66
2023/04/28 08:05:15;;;;;;;15.93;12.55;;;12.30;85.80;;;;;;5051362;28;20101;-66
2023/04/28 08:07:42;;;;;;;13.75;11.05;;;12.40;86.00;;;;;;5051345;28;20039;-68
2023/04/28 08:10:09;;;;;;;17.20;12.43;;;12.40;86.00;;;;;;5050974;28;20009;-68
2023/04/28 08:12:35;;;;;;;13.35;11.25;;;12.30;86.30;;;;;;5050964;28;20033;-67
2023/04/28 08:15:00;;;;;;;15.52;11.88;;;12.40;86.40;;;;;;5051098;28;20039;-68
2023/04/28 08:17:26;;;;;;;17.70;13.75;;;12.40;86.50;;;;;;5049620;28;20266;-69
2023/04/28 08:19:51;;;;;;;17.15;13.50;;;12.40;87.30;;;;;;5051503;28;20488;-69
2023/04/28 08:22:17;;;;;;;17.15;12.45;;;12.40;87.50;;;;;;5051068;28;20025;-69
2023/04/28 08:24:43;;;;;;;16.90;13.32;;;12.40;87.60;;;;;;5050874;28;20104;-69
2023/04/28 08:27:08;;;;;;;16.38;12.80;;;12.40;88.10;;;;;;5050964;28;20016;-68
2023/04/28 08:29:34;;;;;;;14.82;11.80;;;12.50;88.20;;;;;;5051140;28;20411;-67
2023/04/28 08:32:03;;;;;;;17.48;14.23;;;12.60;88.00;;;;;;5051377;28;20021;-67
2023/04/28 08:34:29;;;;;;;18.10;13.95;;;12.70;88.40;;;;;;5049078;28;20032;-69
2023/04/28 08:36:54;;;;;;;14.07;11.55;;;12.90;88.60;;;;;;5050463;28;20021;-68
2023/04/28 08:39:22;;;;;;;14.55;11.20;;;13.00;88.10;;;;;;5051013;28;20361;-67
2023/04/28 08:41:48;;;;;;;15.80;12.65;;;13.10;87.40;;;;;;5050666;28;20025;-66
2023/04/28 08:44:13;;;;;;;18.63;15.30;;;13.20;87.10;;;;;;5050966;28;20311;-65
2023/04/28 08:46:43;;;;;;;18.35;13.07;;;13.30;86.90;;;;;;5050343;28;20108;-67
2023/04/28 08:49:14;;;;;;;16.25;11.95;;;13.40;86.80;;;;;;5048855;28;20100;-68
2023/04/28 08:52:04;;;;;;;13.80;10.43;;;13.40;87.00;;;;;;5050464;28;20495;-65
2023/04/28 08:54:30;;;;;;;13.77;10.55;;;13.50;85.90;;;;;;5050299;28;20033;-67
2023/04/28 08:56:57;;;;;;;15.55;12.13;;;13.60;85.40;;;;;;5050310;28;20029;-66
2023/04/28 08:59:23;;;;;;;15.30;11.43;;;13.60;85.50;;;;;;5050410;28;20158;-67
2023/04/28 09:01:49;;;;;;;12.70;9.40;;;13.70;85.30;;;;;;5050254;28;20123;-67
2023/04/28 09:04:18;;;;;;;15.13;11.88;;;13.70;85.00;;;;;;5050187;28;20100;-67
2023/04/28 09:06:45;;;;;;;18.13;14.65;;;13.70;85.00;;;;;;5050337;28;20140;-68
2023/04/28 09:09:24;;;;;;;14.70;12.32;;;13.80;85.10;;;;;;5050173;28;20146;-66
2023/04/28 09:11:57;;;;;;;14.57;11.15;;;13.70;85.00;;;;;;5050280;28;20171;-67
2023/04/28 09:14:22;;;;;;;16.88;12.45;;;13.70;85.00;;;;;;5048964;28;20021;-66
2023/04/28 09:16:48;;;;;;;15.80;12.20;;;13.80;84.90;;;;;;5050099;28;20032;-68
2023/04/28 09:19:16;;;;;;;14.48;11.25;;;13.80;85.00;;;;;;5050376;28;20032;-68
2023/04/28 09:21:56;;;;;;;19.73;15.05;;;13.70;85.00;;;;;;5049917;28;20111;-66
2023/04/28 09:24:39;;;;;;;13.88;11.18;;;13.60;85.90;;;;;;5050335;28;20052;-68
2023/04/28 09:27:09;;;;;;;14.25;11.50;;;13.60;86.10;;;;;;5049955;28;20120;-68
2023/04/28 09:29:35;;;;;;;18.50;14.35;;;13.60;86.40;;;;;;5050203;28;20074;-68
2023/04/28 09:32:15;;;;;;;15.75;13.90;;;13.60;86.70;;;;;;5049870;28;20111;-67
2023/04/28 09:34:46;;;;;;;13.95;12.20;;;13.60;87.10;;;;;;5049676;28;20440;-68
2023/04/28 09:37:22;;;;;;;14.65;12.00;;;13.70;86.70;;;;;;5048339;28;20025;-68
2023/04/28 09:39:52;;;;;;;17.98;13.77;;;13.80;86.50;;;;;;5050001;28;20045;-68
2023/04/28 09:42:41;;;;;;;15.57;12.88;;;13.80;86.80;;;;;;5049840;28;20484;-68
2023/04/28 09:45:08;;;;;;;15.73;12.50;;;13.70;87.20;;;;;;5049818;28;20441;-67
2023/04/28 09:47:36;;;;;;;14.40;11.98;;;13.70;87.30;;;;;;5049997;28;20020;-67
2023/04/28 09:50:05;;;;;;;16.25;12.80;;;13.80;87.30;;;;;;5049749;28;20021;-69
2023/04/28 09:52:33;;;;;;;16.35;12.77;;;13.90;87.10;;;;;;5049564;28;20070;-68
2023/04/28 09:55:01;;;;;;;18.35;13.15;;;13.90;87.30;;;;;;5049802;28;20021;-67
2023/04/28 09:57:31;;;;;;;15.77;12.55;;;13.90;87.50;;;;;;5049375;28;20021;-67
2023/04/28 09:59:57;;;;;;;18.33;13.25;;;13.90;87.60;;;;;;5050045;28;20468;-68
2023/04/28 10:02:24;;;;;;;16.73;12.95;;;13.90;87.60;;;;;;5051444;28;20039;-67
2023/04/28 10:04:50;;;;;;;14.85;12.90;;;13.80;87.70;;;;;;5052383;28;20029;-67
2023/04/28 10:07:19;;;;;;;15.18;11.07;;;13.90;87.70;;;;;;5052299;28;20539;-67
2023/04/28 10:09:49;;;;;;;14.05;10.40;;;13.90;87.50;;;;;;5052298;28;20028;-68
2023/04/28 10:12:18;;;;;;;14.70;12.52;;;13.90;87.40;;;;;;5053786;28;20033;-66
2023/04/28 10:14:46;;;;;;;11.07;9.88;;;14.00;87.70;;;;;;5053402;28;20083;-66
2023/04/28 10:17:13;;;;;;;13.38;11.20;;;14.00;87.40;;;;;;5052136;28;20024;-67
2023/04/28 10:19:40;;;;;;;15.45;11.93;;;14.10;87.40;;;;;;5051844;28;20029;-66
2023/04/28 10:22:31;;;;;;;12.40;10.73;;;14.10;87.30;;;;;;5053373;28;20032;-67
2023/04/28 10:25:11;;;;;;;16.38;12.07;;;14.20;87.40;;;;;;5053172;28;20074;-66
2023/04/28 10:27:45;;;;;;;11.70;9.73;;;14.10;87.40;;;;;;5053320;28;20056;-66
2023/04/28 10:30:14;;;;;;;12.68;10.88;;;14.20;87.30;;;;;;5051918;28;20025;-67
2023/04/28 10:32:40;;;;;;;13.30;11.00;;;14.20;87.30;;;;;;5051920;28;20112;-65
2023/04/28 10:35:24;;;;;;;15.15;11.68;;;14.20;87.60;;;;;;5051828;28;20119;-67
2023/04/28 10:38:13;;;;;;;15.45;12.77;;;14.20;87.70;;;;;;5053067;28;20028;-67
2023/04/28 10:40:47;;;;;;;14.15;10.98;;;14.20;88.30;;;;;;5053012;28;20047;-66
2023/04/28 10:43:27;;;;;;;12.77;10.90;;;14.20;88.60;;;;;;5053030;28;20029;-67
2023/04/28 10:46:00;;;;;;;11.82;10.48;;;14.30;88.50;;;;;;5052961;28;20055;-68
2023/04/28 10:48:32;;;;;;;12.90;11.27;;;14.40;88.20;;;;;;5053547;28;20032;-67
2023/04/28 10:51:06;;;;;;;11.30;10.10;;;14.40;88.40;;;;;;5053200;28;20017;-67
2023/04/28 10:53:44;;;;;;;19.17;15.95;;;14.50;88.40;;;;;;5053427;28;20107;-67
2023/04/28 10:56:17;;;;;;;13.32;11.93;;;14.50;88.60;;;;;;5053299;28;20044;-67
2023/04/28 10:58:47;;;;;;;15.95;12.52;;;14.50;88.70;;;;;;5052822;28;20048;-68
2023/04/28 11:01:33;;;;;;;14.70;12.13;;;14.40;88.80;;;;;;5052699;28;20039;-67
2023/04/28 11:04:10;;;;;;;12.23;10.13;;;14.40;89.00;;;;;;5052665;28;20035;-68
2023/04/28 11:06:38;;;;;;;19.17;17.13;;;14.40;89.30;;;;;;5052603;28;20021;-68
2023/04/28 11:09:19;;;;;;;16.27;14.60;;;14.40;89.70;;;;;;5052733;28;20574;-67
2023/04/28 11:12:05;;;;;;;14.80;12.40;;;14.40;90.10;;;;;;5052472;28;20028;-66
2023/04/28 11:14:35;;;;;;;13.85;12.35;;;14.50;90.30;;;;;;5052328;28;20021;-68
2023/04/28 11:17:10;;;;;;;14.38;12.88;;;14.50;90.60;;;;;;5052167;28;20029;-68
2023/04/28 11:19:38;;;;;;;13.60;12.20;;;14.50;90.70;;;;;;5052816;28;20017;-67
2023/04/28 11:22:12;;;;;;;12.85;11.45;;;14.50;90.90;;;;;;5052095;28;20104;-67
2023/04/28 11:24:37;;;;;;;9.93;8.95;;;14.50;90.90;;;;;;5050827;28;20074;-67
2023/04/28 11:27:03;;;;;;;13.15;11.73;;;14.60;90.80;;;;;;5052139;28;20025;-67
2023/04/28 11:29:40;;;;;;;9.00;7.82;;;14.60;90.90;;;;;;5052213;28;20021;-66
2023/04/28 11:32:07;;;;;;;10.52;9.43;;;14.70;90.80;;;;;;5052327;28;20427;-67
2023/04/28 11:34:33;;;;;;;14.73;13.32;;;14.80;90.70;;;;;;5052216;28;20036;-66
2023/04/28 11:37:00;;;;;;;8.85;7.93;;;14.80;91.20;;;;;;5051923;28;20493;-66
2023/04/28 11:39:28;;;;;;;8.48;7.45;;;14.70;91.40;;;;;;5051874;28;20081;-66
2023/04/28 11:41:53;;;;;;;7.78;7.00;;;14.70;91.30;;;;;;5051802;28;20078;-67
2023/04/28 11:44:22;;;;;;;8.82;7.05;;;14.80;91.20;;;;;;5052010;28;20510;-65
2023/04/28 11:46:58;;;;;;;7.07;6.38;;;14.80;91.20;;;;;;5051668;28;20028;-65
2023/04/28 11:49:27;;;;;;;7.10;6.40;;;14.80;91.20;;;;;;5050491;28;20025;-65
2023/04/28 11:51:53;;;;;;;8.73;7.82;;;14.80;91.30;;;;;;5051654;28;20025;-66
2023/04/28 11:54:21;;;;;;;8.48;7.63;;;14.80;91.50;;;;;;5051850;28;20029;-68
2023/04/28 11:56:47;;;;;;;7.38;6.25;;;14.80;91.50;;;;;;5051623;28;20017;-67
2023/04/28 11:59:13;;;;;;;7.13;6.38;;;14.90;91.50;;;;;;5051691;28;20420;-66
2023/04/28 12:01:50;;;;;;;7.68;6.75;;;14.90;91.40;;;;;;5051487;28;20442;-66
2023/04/28 12:04:36;;;;;;;9.40;7.88;;;15.00;91.30;;;;;;5051354;28;20025;-66
2023/04/28 12:07:15;;;;;;;9.02;7.97;;;15.10;91.20;;;;;;5051444;28;20021;-65
2023/04/28 12:09:47;;;;;;;10.45;8.68;;;15.10;91.10;;;;;;5051551;28;20248;-66
2023/04/28 12:12:15;;;;;;;8.93;8.00;;;15.20;91.00;;;;;;5051436;28;20029;-68
2023/04/28 12:14:55;;;;;;;9.57;8.18;;;15.40;90.80;;;;;;5051227;28;20100;-67
2023/04/28 12:17:29;;;;;;;12.35;11.05;;;15.40;90.70;;;;;;5051409;28;20079;-66
2023/04/28 12:19:55;;;;;;;10.70;9.27;;;15.40;90.70;;;;;;5051145;28;20453;-66
2023/04/28 12:22:21;;;;;;;11.88;10.60;;;15.30;90.80;;;;;;5051082;28;20025;-66
2023/04/28 12:25:16;;;;;;;12.60;11.15;;;15.30;91.10;;;;;;5050111;28;20147;-66
2023/04/28 12:28:04;;;;;;;13.20;10.57;;;15.20;91.10;;;;;;5049643;28;20167;-67
2023/04/28 12:30:37;;;;;;;10.52;9.38;;;15.20;91.50;;;;;;5050945;28;20438;-66
2023/04/28 12:33:03;;;;;;;10.23;9.07;;;15.30;91.10;;;;;;5051041;28;20104;-66
2023/04/28 12:35:29;;;;;;;9.38;7.68;;;15.20;91.10;;;;;;5050705;28;20499;-66
2023/04/28 12:37:57;;;;;;;11.52;10.20;;;15.20;91.20;;;;;;5050710;28;20438;-66
2023/04/28 12:40:23;;;;;;;10.55;8.20;;;15.10;91.30;;;;;;5050572;28;20029;-67
2023/04/28 12:42:49;;;;;;;10.27;8.57;;;15.10;91.30;;;;;;5050667;28;20047;-66